createdAt,value
2022-10-12T00:01:45.313Z,5.22
2022-10-12T00:04:14.152Z,5.45
2022-10-12T00:06:42.926Z,4.38
2022-10-12T00:09:13.144Z,8.18
2022-10-12T00:11:44.858Z,11.70
2022-10-12T00:14:13.039Z,8.23
2022-10-12T00:16:42.584Z,4.95
2022-10-12T00:19:17.643Z,7.38
2022-10-12T00:21:47.386Z,5.32
2022-10-12T00:24:16.014Z,11.07
2022-10-12T00:26:44.382Z,7.32
2022-10-12T00:29:12.710Z,7.60
2022-10-12T00:31:42.322Z,8.35
2022-10-12T00:34:13.481Z,8.82
2022-10-12T00:36:42.511Z,6.15
2022-10-12T00:39:11.403Z,7.28
2022-10-12T00:41:42.447Z,4.25
2022-10-12T00:44:47.110Z,7.57
2022-10-12T00:47:25.318Z,7.80
2022-10-12T00:49:58.179Z,6.47
2022-10-12T00:52:32.757Z,7.95
2022-10-12T00:55:02.315Z,4.50
2022-10-12T00:57:31.137Z,7.32
2022-10-12T01:00:03.652Z,7.47
2022-10-12T01:02:36.058Z,11.07
2022-10-12T01:05:07.084Z,7.53
2022-10-12T01:07:35.673Z,7.75
2022-10-12T01:10:04.531Z,5.20
2022-10-12T01:12:33.484Z,7.15
2022-10-12T01:15:02.212Z,9.95
2022-10-12T01:17:39.762Z,6.35
2022-10-12T01:20:45.402Z,8.32
2022-10-12T01:23:59.035Z,9.88
2022-10-12T01:27:06.241Z,9.00
2022-10-12T01:29:55.649Z,9.52
2022-10-12T01:32:28.673Z,7.57
2022-10-12T01:35:04.079Z,10.07
2022-10-12T01:37:43.657Z,9.90
2022-10-12T01:40:19.052Z,4.28
2022-10-12T01:42:48.360Z,8.90
2022-10-12T01:45:20.660Z,6.32
2022-10-12T01:47:55.611Z,9.48
2022-10-12T01:50:29.822Z,5.97
2022-10-12T01:53:05.657Z,11.73
2022-10-12T01:55:40.168Z,10.25
2022-10-12T01:58:28.640Z,11.50
2022-10-12T02:01:06.249Z,6.57
2022-10-12T02:03:41.120Z,7.78
2022-10-12T02:06:14.942Z,10.20
2022-10-12T02:08:48.935Z,13.90
2022-10-12T02:11:19.766Z,10.52
2022-10-12T02:13:52.493Z,9.30
2022-10-12T02:16:24.700Z,13.73
2022-10-12T02:18:55.720Z,14.95
2022-10-12T02:21:30.644Z,7.50
2022-10-12T02:24:06.259Z,11.07
2022-10-12T02:26:38.079Z,6.93
2022-10-12T02:29:11.072Z,5.68
2022-10-12T02:31:48.141Z,6.05
2022-10-12T02:34:19.350Z,5.90
2022-10-12T02:36:53.414Z,8.15
2022-10-12T02:39:26.285Z,6.53
2022-10-12T02:42:00.205Z,9.80
2022-10-12T02:44:32.820Z,9.05
2022-10-12T02:47:13.997Z,6.13
2022-10-12T02:49:44.784Z,5.70
2022-10-12T02:52:13.966Z,7.72
2022-10-12T02:54:42.442Z,11.38
2022-10-12T02:57:10.696Z,8.18
2022-10-12T02:59:39.109Z,14.27
2022-10-12T03:02:08.989Z,7.70
2022-10-12T03:04:39.554Z,5.63
2022-10-12T03:07:09.589Z,10.88
2022-10-12T03:09:37.814Z,9.05
2022-10-12T03:12:10.018Z,9.50
2022-10-12T03:14:39.580Z,6.57
2022-10-12T03:17:08.155Z,10.07
2022-10-12T03:19:38.449Z,7.47
2022-10-12T03:22:10.402Z,9.65
2022-10-12T03:24:39.001Z,11.05
2022-10-12T03:27:07.133Z,6.50
2022-10-12T03:29:35.477Z,11.70
2022-10-12T03:32:04.005Z,15.25
2022-10-12T03:34:32.103Z,8.45
2022-10-12T03:37:00.310Z,8.65
2022-10-12T03:39:30.284Z,10.15
2022-10-12T03:41:58.619Z,6.07
2022-10-12T03:44:27.117Z,13.57
2022-10-12T03:46:55.504Z,8.13
2022-10-12T03:49:25.019Z,9.82
2022-10-12T03:51:58.941Z,10.35
2022-10-12T03:54:30.736Z,6.90
2022-10-12T03:57:00.845Z,6.38
2022-10-12T03:59:29.053Z,15.05
2022-10-12T04:01:57.296Z,7.07
2022-10-12T04:04:27.230Z,10.13
2022-10-12T04:06:55.571Z,13.85
2022-10-12T04:09:23.861Z,6.72
2022-10-12T04:11:52.521Z,8.30
2022-10-12T04:14:22.178Z,9.00
2022-10-12T04:16:50.471Z,8.25
2022-10-12T04:19:18.810Z,7.78
2022-10-12T04:21:47.161Z,5.97
2022-10-12T04:24:15.639Z,11.85
2022-10-12T04:26:45.154Z,8.43
2022-10-12T04:29:15.541Z,12.32
2022-10-12T04:31:46.946Z,9.65
2022-10-12T04:34:15.351Z,9.43
2022-10-12T04:36:43.618Z,9.15
2022-10-12T04:39:12.095Z,6.97
2022-10-12T04:41:42.497Z,9.88
2022-10-12T04:44:10.943Z,7.80
2022-10-12T04:46:39.394Z,5.93
2022-10-12T04:49:11.637Z,6.35
2022-10-12T04:51:42.074Z,6.93
2022-10-12T04:54:11.588Z,7.20
2022-10-12T04:56:42.130Z,8.70
2022-10-12T04:59:14.130Z,4.93
2022-10-12T05:01:42.557Z,6.93
2022-10-12T05:04:12.718Z,6.82
2022-10-12T05:06:40.899Z,7.75
2022-10-12T05:09:13.204Z,7.28
2022-10-12T05:11:44.542Z,10.35
2022-10-12T05:14:13.186Z,7.82
2022-10-12T05:16:41.661Z,8.23
2022-10-12T05:19:12.074Z,7.63
2022-10-12T05:21:40.904Z,10.98
2022-10-12T05:24:09.982Z,10.80
2022-10-12T05:26:39.063Z,9.05
2022-10-12T05:29:09.097Z,7.97
2022-10-12T05:31:37.274Z,8.23
2022-10-12T05:34:07.522Z,10.27
2022-10-12T05:36:37.487Z,11.50
2022-10-12T05:39:06.026Z,7.82
2022-10-12T05:41:34.249Z,5.70
2022-10-12T05:44:02.414Z,10.25
2022-10-12T05:46:31.118Z,11.48
2022-10-12T05:48:59.374Z,5.63
2022-10-12T05:51:28.997Z,7.85
2022-10-12T05:53:59.319Z,7.55
2022-10-12T05:56:27.601Z,8.00
2022-10-12T05:58:59.571Z,7.28
2022-10-12T06:01:28.249Z,6.43
2022-10-12T06:03:56.459Z,10.15
2022-10-12T06:06:26.703Z,9.68
2022-10-12T06:08:54.922Z,9.13
2022-10-12T06:11:30.359Z,9.68
2022-10-12T06:14:01.022Z,8.60
2022-10-12T06:16:30.465Z,11.18
2022-10-12T06:19:00.742Z,6.70
2022-10-12T06:21:33.622Z,12.07
2022-10-12T06:24:02.748Z,8.60
2022-10-12T06:26:32.482Z,8.77
2022-10-12T06:29:02.856Z,9.60
2022-10-12T06:31:32.479Z,7.15
2022-10-12T06:34:00.873Z,11.48
2022-10-12T06:36:29.088Z,10.73
2022-10-12T06:38:58.118Z,8.02
2022-10-12T06:41:26.535Z,7.53
2022-10-12T06:43:56.299Z,10.05
2022-10-12T06:46:24.885Z,6.30
2022-10-12T06:48:53.340Z,7.13
2022-10-12T06:51:21.737Z,7.55
2022-10-12T06:53:51.041Z,8.65
2022-10-12T06:56:19.652Z,5.88
2022-10-12T06:58:48.161Z,5.65
2022-10-12T07:01:18.926Z,9.32
2022-10-12T07:03:48.222Z,5.82
2022-10-12T07:06:16.693Z,7.10
2022-10-12T07:08:48.913Z,5.68
2022-10-12T07:11:17.276Z,7.65
2022-10-12T07:13:45.579Z,6.70
2022-10-12T07:16:18.506Z,10.68
2022-10-12T07:18:49.286Z,7.50
2022-10-12T07:21:19.150Z,14.75
2022-10-12T07:23:47.723Z,7.95
2022-10-12T07:26:16.326Z,8.55
2022-10-12T07:28:44.808Z,6.32
2022-10-12T07:31:13.793Z,9.18
2022-10-12T07:33:42.082Z,6.82
2022-10-12T07:36:14.812Z,8.80
2022-10-12T07:38:47.068Z,7.82
2022-10-12T07:41:15.828Z,9.13
2022-10-12T07:43:44.659Z,11.82
2022-10-12T07:46:13.051Z,10.55
2022-10-12T07:48:45.689Z,14.20
2022-10-12T07:51:19.274Z,9.27
2022-10-12T07:53:47.552Z,8.52
2022-10-12T07:56:16.203Z,10.55
2022-10-12T07:58:44.981Z,12.93
2022-10-12T08:01:13.167Z,16.42
2022-10-12T08:03:41.578Z,12.45
2022-10-12T08:06:11.369Z,6.35
2022-10-12T08:08:41.512Z,9.18
2022-10-12T08:11:10.596Z,15.85
2022-10-12T08:13:39.917Z,10.32
2022-10-12T08:16:13.052Z,13.93
2022-10-12T08:18:43.433Z,13.32
2022-10-12T08:21:13.646Z,11.60
2022-10-12T08:23:47.083Z,11.88
2022-10-12T08:26:16.557Z,9.73
2022-10-12T08:28:44.925Z,8.90
2022-10-12T08:31:16.386Z,6.10
2022-10-12T08:33:45.790Z,9.20
2022-10-12T08:36:14.830Z,7.38
2022-10-12T08:38:45.529Z,7.18
2022-10-12T08:41:26.442Z,8.05
2022-10-12T08:44:20.669Z,9.70
2022-10-12T08:46:51.858Z,7.38
2022-10-12T08:49:25.036Z,7.28
2022-10-12T08:51:56.350Z,6.43
2022-10-12T08:54:30.859Z,12.40
2022-10-12T08:56:59.472Z,11.98
2022-10-12T08:59:29.492Z,8.68
2022-10-12T09:02:10.080Z,7.15
2022-10-12T09:04:47.920Z,16.40
2022-10-12T09:07:22.615Z,8.57
2022-10-12T09:10:04.366Z,7.13
2022-10-12T09:12:50.403Z,7.60
2022-10-12T09:15:22.538Z,7.75
2022-10-12T09:17:54.067Z,7.72
2022-10-12T09:20:27.612Z,14.35
2022-10-12T09:23:01.136Z,11.65
2022-10-12T09:25:30.927Z,8.40
2022-10-12T09:28:16.673Z,11.43
2022-10-12T09:31:03.448Z,5.72
2022-10-12T09:33:43.576Z,6.53
2022-10-12T09:36:17.009Z,10.68
2022-10-12T09:38:45.772Z,10.68
2022-10-12T09:41:22.522Z,10.15
2022-10-12T09:43:53.554Z,9.45
2022-10-12T09:46:34.740Z,12.57
2022-10-12T09:49:03.761Z,8.40
2022-10-12T09:51:34.841Z,9.65
2022-10-12T09:54:06.271Z,8.35
2022-10-12T09:56:41.798Z,5.35
2022-10-12T09:59:30.144Z,7.53
2022-10-12T10:02:01.418Z,9.00
2022-10-12T10:04:32.445Z,10.60
2022-10-12T10:07:19.658Z,9.50
2022-10-12T10:09:48.759Z,11.88
2022-10-12T10:12:25.336Z,9.10
2022-10-12T10:14:56.967Z,7.95
2022-10-12T10:17:28.087Z,6.55
2022-10-12T10:19:58.177Z,8.18
2022-10-12T10:22:27.626Z,8.32
2022-10-12T10:25:00.478Z,12.55
2022-10-12T10:27:42.519Z,7.60
2022-10-12T10:30:40.834Z,7.88
2022-10-12T10:33:19.019Z,6.15
2022-10-12T10:35:58.171Z,10.13
2022-10-12T10:38:26.800Z,8.57
2022-10-12T10:40:57.581Z,10.18
2022-10-12T10:43:30.287Z,6.82
2022-10-12T10:46:02.129Z,8.82
2022-10-12T10:48:32.612Z,11.77
2022-10-12T10:51:02.506Z,9.13
2022-10-12T10:53:34.134Z,9.82
2022-10-12T10:56:07.973Z,8.43
2022-10-12T10:58:46.181Z,7.90
2022-10-12T11:01:22.980Z,17.83
2022-10-12T11:03:58.356Z,6.00
2022-10-12T11:06:36.327Z,13.18
2022-10-12T11:09:08.608Z,7.05
2022-10-12T11:11:39.540Z,7.32
2022-10-12T11:14:16.418Z,5.75
2022-10-12T11:16:49.499Z,8.18
2022-10-12T11:19:31.130Z,7.07
2022-10-12T11:22:05.068Z,7.40
2022-10-12T11:24:37.654Z,10.23
2022-10-12T11:27:15.552Z,5.55
2022-10-12T11:29:46.625Z,7.65
2022-10-12T11:32:27.358Z,7.05
2022-10-12T11:34:59.682Z,6.70
2022-10-12T11:37:35.024Z,8.80
2022-10-12T11:40:07.365Z,5.22
2022-10-12T11:42:43.662Z,12.18
2022-10-12T11:45:24.643Z,9.65
2022-10-12T11:47:57.742Z,5.80
2022-10-12T11:50:31.503Z,8.40
2022-10-12T11:53:03.426Z,8.10
2022-10-12T11:55:42.195Z,6.07
2022-10-12T11:58:18.968Z,7.07
2022-10-12T12:01:06.934Z,7.05
2022-10-12T12:04:22.616Z,11.15
2022-10-12T12:06:58.136Z,9.65
2022-10-12T12:09:50.576Z,5.97
2022-10-12T12:12:22.574Z,7.10
2022-10-12T12:15:06.567Z,6.20
2022-10-12T12:17:38.130Z,8.50
2022-10-12T12:21:01.225Z,8.82
2022-10-12T12:23:33.626Z,5.45
2022-10-12T12:26:20.652Z,5.82
2022-10-12T12:28:51.116Z,6.22
2022-10-12T12:31:28.068Z,8.07
2022-10-12T12:34:07.259Z,6.60
2022-10-12T12:36:37.816Z,6.68
2022-10-12T12:39:09.786Z,7.00
2022-10-12T12:41:55.325Z,6.57
2022-10-12T12:44:46.923Z,6.63
2022-10-12T12:50:35.517Z,7.82
2022-10-12T12:53:07.286Z,5.18
2022-10-12T12:56:04.851Z,3.10
2022-10-12T12:59:01.122Z,5.50
2022-10-12T13:02:05.575Z,5.13
2022-10-12T13:04:52.445Z,5.85
2022-10-12T13:07:49.052Z,4.13
2022-10-12T13:10:30.369Z,4.88
2022-10-12T13:13:17.189Z,7.95
2022-10-12T13:16:00.086Z,6.25
2022-10-12T13:18:53.194Z,5.32
2022-10-12T13:21:25.546Z,7.13
2022-10-12T13:24:04.614Z,4.97
2022-10-12T13:27:23.756Z,4.35
2022-10-12T13:30:00.606Z,6.80
2022-10-12T13:32:43.098Z,3.45
2022-10-12T13:35:18.424Z,11.35
2022-10-12T13:38:01.867Z,4.78
2022-10-12T13:40:56.734Z,10.55
2022-10-12T13:43:46.845Z,5.05
2022-10-12T13:46:42.898Z,5.35
2022-10-12T13:49:26.570Z,7.32
2022-10-12T13:52:33.147Z,6.15
2022-10-12T13:55:26.204Z,5.80
2022-10-12T13:58:41.106Z,5.00
2022-10-12T14:01:25.946Z,6.30
2022-10-12T14:04:10.274Z,6.95
2022-10-12T14:06:43.221Z,3.63
2022-10-12T14:09:33.460Z,6.18
2022-10-12T14:16:20.056Z,4.13
2022-10-12T14:18:54.219Z,7.90
2022-10-12T14:22:32.247Z,3.97
2022-10-12T14:25:11.884Z,3.80
2022-10-12T14:27:53.968Z,4.95
2022-10-12T14:30:44.639Z,7.45
2022-10-12T14:33:39.695Z,5.90
2022-10-12T14:36:41.259Z,9.50
2022-10-12T14:39:27.770Z,9.40
2022-10-12T14:42:27.322Z,3.80
2022-10-12T14:44:56.470Z,6.50
2022-10-12T14:48:43.354Z,4.45
2022-10-12T14:51:30.840Z,6.47
2022-10-12T14:54:06.902Z,6.53
2022-10-12T14:56:36.669Z,10.88
2022-10-12T14:59:21.537Z,7.38
2022-10-12T15:01:57.092Z,6.75
2022-10-12T15:04:56.099Z,9.20
2022-10-12T15:07:44.630Z,6.55
2022-10-12T15:10:26.363Z,10.65
2022-10-12T15:16:01.457Z,6.95
2022-10-12T15:18:42.794Z,7.30
2022-10-12T15:21:36.678Z,4.45
2022-10-12T15:24:23.128Z,5.70
2022-10-12T15:27:19.049Z,4.53
2022-10-12T15:29:50.328Z,10.98
2022-10-12T15:32:27.305Z,8.70
2022-10-12T15:35:53.898Z,12.45
2022-10-12T15:38:34.308Z,8.38
2022-10-12T15:41:21.811Z,7.57
2022-10-12T15:44:02.611Z,6.85
2022-10-12T15:47:03.540Z,7.40
2022-10-12T15:49:34.493Z,8.18
2022-10-12T15:52:19.101Z,6.10
2022-10-12T15:54:51.642Z,9.27
2022-10-12T15:57:46.774Z,4.68
2022-10-12T16:00:21.652Z,8.57
2022-10-12T16:03:25.477Z,7.85
2022-10-12T16:06:22.218Z,12.45
2022-10-12T16:08:55.537Z,6.35
2022-10-12T16:11:25.862Z,8.95
2022-10-12T16:14:11.106Z,9.95
2022-10-12T16:16:51.463Z,4.03
2022-10-12T16:19:20.897Z,9.18
2022-10-12T16:21:59.198Z,7.82
2022-10-12T16:24:32.852Z,9.90
2022-10-12T16:27:03.571Z,10.57
2022-10-12T16:29:32.569Z,6.95
2022-10-12T16:32:03.037Z,19.55
2022-10-12T16:34:35.159Z,35.42
2022-10-12T16:37:04.529Z,24.13
2022-10-12T16:39:33.402Z,19.13
2022-10-12T16:42:02.230Z,6.80
2022-10-12T16:44:31.005Z,4.07
2022-10-12T16:47:04.281Z,5.50
2022-10-12T16:49:36.999Z,7.60
2022-10-12T16:52:07.746Z,7.15
2022-10-12T16:54:39.519Z,8.05
2022-10-12T16:57:11.795Z,7.03
2022-10-12T16:59:44.425Z,8.02
2022-10-12T17:02:15.835Z,10.35
2022-10-12T17:04:49.214Z,10.35
2022-10-12T17:07:21.668Z,10.15
2022-10-12T17:09:51.082Z,6.70
2022-10-12T17:12:20.496Z,8.77
2022-10-12T17:14:50.509Z,12.00
2022-10-12T17:17:21.338Z,15.32
2022-10-12T17:20:08.752Z,8.68
2022-10-12T17:22:41.378Z,12.30
2022-10-12T17:25:17.017Z,14.95
2022-10-12T17:27:56.519Z,11.30
2022-10-12T17:30:26.312Z,8.75
2022-10-12T17:32:55.919Z,8.45
2022-10-12T17:35:28.022Z,8.20
2022-10-12T17:37:57.098Z,18.80
2022-10-12T17:40:26.494Z,11.40
2022-10-12T17:42:55.925Z,14.93
2022-10-12T17:45:25.166Z,15.02
2022-10-12T17:47:55.626Z,12.10
2022-10-12T17:50:25.459Z,11.02
2022-10-12T17:52:53.853Z,13.00
2022-10-12T17:55:47.017Z,12.57
2022-10-12T17:58:14.428Z,8.15
2022-10-12T18:00:43.252Z,10.98
2022-10-12T18:03:12.596Z,18.10
2022-10-12T18:05:43.266Z,22.95
2022-10-12T18:08:12.928Z,19.10
2022-10-12T18:10:42.288Z,21.13
2022-10-12T18:13:11.191Z,24.67
2022-10-12T18:15:49.705Z,24.23
2022-10-12T18:18:18.086Z,19.25
2022-10-12T18:20:50.962Z,16.98
2022-10-12T18:23:20.431Z,16.27
2022-10-12T18:25:51.111Z,40.08
2022-10-12T18:28:19.532Z,12.18
2022-10-12T18:30:48.728Z,20.05
2022-10-12T18:33:20.836Z,15.98
2022-10-12T18:35:50.944Z,12.88
2022-10-12T18:38:20.026Z,19.27
2022-10-12T18:40:48.836Z,24.08
2022-10-12T18:43:17.626Z,19.65
2022-10-12T18:45:47.010Z,23.00
2022-10-12T18:48:17.375Z,20.05
2022-10-12T18:50:47.048Z,42.40
2022-10-12T18:53:17.500Z,28.40
2022-10-12T18:55:46.368Z,24.85
2022-10-12T18:58:15.906Z,18.58
2022-10-12T19:00:45.421Z,19.40
2022-10-12T19:03:14.705Z,0.10
2022-10-12T19:05:43.459Z,15.38
2022-10-12T19:08:14.824Z,4.50
2022-10-12T19:10:45.248Z,11.98
2022-10-12T19:13:14.229Z,11.00
2022-10-12T19:15:43.293Z,10.68
2022-10-12T19:18:14.844Z,9.40
2022-10-12T19:20:44.150Z,10.20
2022-10-12T19:23:17.798Z,10.70
2022-10-12T19:25:48.246Z,14.68
2022-10-12T19:28:17.192Z,11.50
2022-10-12T19:30:47.036Z,13.88
2022-10-12T19:33:18.134Z,17.55
2022-10-12T19:35:47.637Z,11.75
2022-10-12T19:38:16.655Z,12.85
2022-10-12T19:40:48.803Z,11.40
2022-10-12T19:43:25.987Z,10.40
2022-10-12T19:45:55.259Z,13.00
2022-10-12T19:48:35.498Z,9.55
2022-10-12T19:51:29.578Z,9.65
2022-10-12T19:54:15.738Z,10.77
2022-10-12T19:57:06.171Z,12.55
2022-10-12T19:59:41.699Z,12.30
2022-10-12T20:02:26.019Z,12.38
2022-10-12T20:04:56.879Z,11.27
2022-10-12T20:07:39.449Z,15.38
2022-10-12T20:10:11.807Z,13.05
2022-10-12T20:12:41.072Z,16.35
2022-10-12T20:15:12.023Z,11.02
2022-10-12T20:17:41.024Z,11.20
2022-10-12T20:20:11.146Z,11.43
2022-10-12T20:22:39.558Z,11.35
2022-10-12T20:25:09.937Z,13.23
2022-10-12T20:27:40.417Z,11.73
2022-10-12T20:30:12.184Z,17.50
2022-10-12T20:32:43.780Z,15.48
2022-10-12T20:35:14.625Z,19.85
2022-10-12T20:37:45.409Z,16.40
2022-10-12T20:40:29.201Z,9.43
2022-10-12T20:42:58.331Z,8.52
2022-10-12T20:45:29.884Z,9.57
2022-10-12T20:47:59.189Z,14.50
2022-10-12T20:50:29.087Z,10.75
2022-10-12T20:52:57.991Z,16.35
2022-10-12T20:55:27.310Z,10.75
2022-10-12T20:58:04.591Z,10.57
2022-10-12T21:00:35.810Z,10.77
2022-10-12T21:03:04.971Z,15.38
2022-10-12T21:05:38.223Z,12.55
2022-10-12T21:08:07.832Z,10.65
2022-10-12T21:10:40.105Z,11.48
2022-10-12T21:13:09.172Z,11.93
2022-10-12T21:15:39.738Z,12.05
2022-10-12T21:18:08.377Z,10.55
2022-10-12T21:20:39.398Z,9.48
2022-10-12T21:23:08.039Z,10.27
2022-10-12T21:25:36.696Z,12.60
2022-10-12T21:28:22.186Z,13.88
2022-10-12T21:30:53.238Z,12.80
2022-10-12T21:33:22.185Z,11.38
2022-10-12T21:35:51.277Z,12.95
2022-10-12T21:38:20.058Z,13.52
2022-10-12T21:40:49.099Z,11.38
2022-10-12T21:43:17.881Z,14.00
2022-10-12T21:45:46.530Z,16.83
2022-10-12T21:48:16.612Z,12.88
2022-10-12T21:50:47.662Z,14.93
2022-10-12T21:53:16.649Z,14.52
2022-10-12T21:55:46.031Z,12.95
2022-10-12T21:58:17.065Z,17.45
2022-10-12T22:00:46.043Z,18.10
2022-10-12T22:03:16.814Z,11.70
2022-10-12T22:05:46.241Z,15.50
2022-10-12T22:08:15.217Z,9.48
2022-10-12T22:10:45.613Z,14.77
2022-10-12T22:13:14.556Z,14.55
2022-10-12T22:15:43.831Z,13.07
2022-10-12T22:18:15.768Z,12.30
2022-10-12T22:20:44.746Z,13.63
2022-10-12T22:23:13.440Z,11.63
2022-10-12T22:25:45.219Z,17.70
2022-10-12T22:28:14.719Z,15.15
2022-10-12T22:30:43.743Z,16.65
2022-10-12T22:33:12.681Z,10.98
2022-10-12T22:35:53.956Z,13.30
2022-10-12T22:38:23.174Z,9.60
2022-10-12T22:41:00.096Z,10.45
2022-10-12T22:43:32.536Z,10.25
2022-10-12T22:46:02.769Z,16.15
2022-10-12T22:48:32.079Z,10.43
2022-10-12T22:51:03.091Z,9.55
2022-10-12T22:53:34.436Z,9.63
2022-10-12T22:56:04.958Z,13.07
2022-10-12T22:58:34.905Z,12.52
2022-10-12T23:01:06.950Z,14.10
2022-10-12T23:03:36.772Z,11.18
2022-10-12T23:06:07.957Z,10.20
2022-10-12T23:08:39.144Z,10.80
2022-10-12T23:11:10.135Z,12.93
2022-10-12T23:13:39.897Z,16.92
2022-10-12T23:16:11.676Z,9.80
2022-10-12T23:18:41.515Z,16.77
2022-10-12T23:21:14.065Z,9.45
2022-10-12T23:23:43.488Z,13.75
2022-10-12T23:26:15.947Z,16.45
2022-10-12T23:28:45.718Z,13.60
2022-10-12T23:31:19.309Z,14.55
2022-10-12T23:33:48.500Z,18.55
2022-10-12T23:36:19.856Z,15.63
2022-10-12T23:38:50.192Z,16.38
2022-10-12T23:41:18.730Z,19.90
2022-10-12T23:43:52.963Z,18.10
2022-10-12T23:46:21.279Z,16.58
2022-10-12T23:48:51.244Z,20.13
2022-10-12T23:51:25.710Z,17.10
2022-10-12T23:53:56.484Z,21.67
2022-10-12T23:56:25.357Z,21.30
2022-10-12T23:58:54.187Z,15.50
